sensor_id;sensor_type;location;lat;lon;timestamp;pressure;altitude;pressure_sealevel;temperature;humidity
40650;BME280;26342;42.826;23.992;2022-07-11T00:01:37;95307.09;;;15.50;100.00
40650;BME280;26342;42.826;23.992;2022-07-11T00:04:03;95313.19;;;15.55;100.00
40650;BME280;26342;42.826;23.992;2022-07-11T00:06:28;95309.19;;;15.34;100.00
40650;BME280;26342;42.826;23.992;2022-07-11T00:08:54;95307.16;;;15.45;100.00
40650;BME280;26342;42.826;23.992;2022-07-11T00:11:19;95312.78;;;15.48;100.00
40650;BME280;26342;42.826;23.992;2022-07-11T00:13:45;95317.28;;;15.53;100.00
40650;BME280;26342;42.826;23.992;2022-07-11T00:16:10;95317.06;;;15.49;100.00
40650;BME280;26342;42.826;23.992;2022-07-11T00:18:36;95313.63;;;15.44;100.00
40650;BME280;26342;42.826;23.992;2022-07-11T00:21:01;95309.84;;;15.45;100.00
40650;BME280;26342;42.826;23.992;2022-07-11T00:23:26;95307.75;;;15.42;100.00
40650;BME280;26342;42.826;23.992;2022-07-11T00:25:52;95304.78;;;15.43;100.00
40650;BME280;26342;42.826;23.992;2022-07-11T00:28:17;95313.56;;;15.49;100.00
40650;BME280;26342;42.826;23.992;2022-07-11T00:30:43;95315.53;;;15.43;100.00
40650;BME280;26342;42.826;23.992;2022-07-11T00:33:08;95316.03;;;15.45;99.95
40650;BME280;26342;42.826;23.992;2022-07-11T00:35:33;95315.81;;;15.42;99.67
40650;BME280;26342;42.826;23.992;2022-07-11T00:37:59;95317.97;;;15.40;100.00
40650;BME280;26342;42.826;23.992;2022-07-11T00:40:24;95307.81;;;15.36;100.00
40650;BME280;26342;42.826;23.992;2022-07-11T00:42:50;95309.19;;;15.34;100.00
40650;BME280;26342;42.826;23.992;2022-07-11T00:45:15;95310.28;;;15.33;100.00
40650;BME280;26342;42.826;23.992;2022-07-11T00:47:41;95311.94;;;15.29;100.00
40650;BME280;26342;42.826;23.992;2022-07-11T00:50:06;95319.84;;;15.20;100.00
40650;BME280;26342;42.826;23.992;2022-07-11T00:52:34;95315.84;;;15.18;100.00
40650;BME280;26342;42.826;23.992;2022-07-11T00:55:01;95318.78;;;15.16;100.00
40650;BME280;26342;42.826;23.992;2022-07-11T00:57:27;95319.72;;;15.06;100.00
40650;BME280;26342;42.826;23.992;2022-07-11T00:59:52;95319.50;;;15.03;100.00
40650;BME280;26342;42.826;23.992;2022-07-11T01:02:18;95318.44;;;14.99;100.00
40650;BME280;26342;42.826;23.992;2022-07-11T01:04:43;95322.56;;;14.91;100.00
40650;BME280;26342;42.826;23.992;2022-07-11T01:07:09;95323.16;;;14.88;100.00
40650;BME280;26342;42.826;23.992;2022-07-11T01:09:35;95314.03;;;14.84;100.00
40650;BME280;26342;42.826;23.992;2022-07-11T01:12:00;95322.38;;;14.83;100.00
40650;BME280;26342;42.826;23.992;2022-07-11T01:14:26;95325.16;;;14.77;100.00
40650;BME280;26342;42.826;23.992;2022-07-11T01:16:51;95321.63;;;14.77;100.00
40650;BME280;26342;42.826;23.992;2022-07-11T01:19:17;95325.69;;;14.74;100.00
40650;BME280;26342;42.826;23.992;2022-07-11T01:21:43;95324.50;;;14.62;100.00
40650;BME280;26342;42.826;23.992;2022-07-11T01:24:13;95324.25;;;14.58;100.00
40650;BME280;26342;42.826;23.992;2022-07-11T01:26:39;95332.88;;;14.55;100.00
40650;BME280;26342;42.826;23.992;2022-07-11T01:29:09;95335.59;;;14.45;100.00
40650;BME280;26342;42.826;23.992;2022-07-11T01:31:35;95328.88;;;14.13;100.00
40650;BME280;26342;42.826;23.992;2022-07-11T01:34:02;95338.09;;;13.97;100.00
40650;BME280;26342;42.826;23.992;2022-07-11T01:36:28;95330.06;;;13.97;100.00
40650;BME280;26342;42.826;23.992;2022-07-11T01:38:53;95322.81;;;13.97;100.00
40650;BME280;26342;42.826;23.992;2022-07-11T01:41:19;95325.19;;;14.04;100.00
40650;BME280;26342;42.826;23.992;2022-07-11T01:43:44;95321.66;;;14.09;100.00
40650;BME280;26342;42.826;23.992;2022-07-11T01:46:09;95319.59;;;14.01;100.00
40650;BME280;26342;42.826;23.992;2022-07-11T01:48:35;95333.81;;;13.96;100.00
40650;BME280;26342;42.826;23.992;2022-07-11T01:51:00;95325.78;;;13.96;100.00
40650;BME280;26342;42.826;23.992;2022-07-11T01:53:26;95337.78;;;14.04;100.00
40650;BME280;26342;42.826;23.992;2022-07-11T01:55:51;95337.56;;;14.00;100.00
40650;BME280;26342;42.826;23.992;2022-07-11T01:58:17;95342.16;;;13.94;100.00
40650;BME280;26342;42.826;23.992;2022-07-11T02:00:42;95336.28;;;13.92;100.00
40650;BME280;26342;42.826;23.992;2022-07-11T02:03:08;95351.56;;;13.92;100.00
40650;BME280;26342;42.826;23.992;2022-07-11T02:05:34;95355.28;;;13.96;100.00
40650;BME280;26342;42.826;23.992;2022-07-11T02:07:59;95337.84;;;13.99;100.00
40650;BME280;26342;42.826;23.992;2022-07-11T02:10:46;95340.78;;;13.97;100.00
40650;BME280;26342;42.826;23.992;2022-07-11T02:13:17;95339.47;;;13.94;100.00
40650;BME280;26342;42.826;23.992;2022-07-11T02:15:43;95344.59;;;13.91;100.00
40650;BME280;26342;42.826;23.992;2022-07-11T02:18:10;95338.97;;;13.87;100.00
40650;BME280;26342;42.826;23.992;2022-07-11T02:20:37;95339.00;;;13.82;100.00
40650;BME280;26342;42.826;23.992;2022-07-11T02:23:03;95354.56;;;13.85;100.00
40650;BME280;26342;42.826;23.992;2022-07-11T02:25:29;95351.34;;;13.83;100.00
40650;BME280;26342;42.826;23.992;2022-07-11T02:27:55;95360.81;;;13.71;100.00
40650;BME280;26342;42.826;23.992;2022-07-11T02:30:21;95358.41;;;13.69;100.00
40650;BME280;26342;42.826;23.992;2022-07-11T02:32:47;95365.06;;;13.77;100.00
40650;BME280;26342;42.826;23.992;2022-07-11T02:35:13;95358.91;;;13.71;100.00
40650;BME280;26342;42.826;23.992;2022-07-11T02:37:38;95362.16;;;13.68;100.00
40650;BME280;26342;42.826;23.992;2022-07-11T02:40:04;95352.25;;;13.58;100.00
40650;BME280;26342;42.826;23.992;2022-07-11T02:42:29;95357.09;;;13.61;100.00
40650;BME280;26342;42.826;23.992;2022-07-11T02:45:02;95361.97;;;13.54;100.00
40650;BME280;26342;42.826;23.992;2022-07-11T02:47:28;95355.56;;;13.45;100.00
40650;BME280;26342;42.826;23.992;2022-07-11T02:49:54;95366.81;;;13.47;100.00
40650;BME280;26342;42.826;23.992;2022-07-11T02:52:20;95358.78;;;13.42;100.00
40650;BME280;26342;42.826;23.992;2022-07-11T02:54:45;95368.44;;;13.43;100.00
40650;BME280;26342;42.826;23.992;2022-07-11T02:57:11;95371.38;;;13.41;100.00
40650;BME280;26342;42.826;23.992;2022-07-11T02:59:36;95378.34;;;13.43;100.00
40650;BME280;26342;42.826;23.992;2022-07-11T03:02:01;95377.31;;;13.38;100.00
40650;BME280;26342;42.826;23.992;2022-07-11T03:04:31;95375.19;;;13.35;100.00
40650;BME280;26342;42.826;23.992;2022-07-11T03:06:56;95385.84;;;13.40;100.00
40650;BME280;26342;42.826;23.992;2022-07-11T03:09:22;95389.38;;;13.36;100.00
40650;BME280;26342;42.826;23.992;2022-07-11T03:11:48;95396.63;;;13.30;100.00
40650;BME280;26342;42.826;23.992;2022-07-11T03:14:15;95401.72;;;13.27;100.00
40650;BME280;26342;42.826;23.992;2022-07-11T03:16:41;95407.91;;;13.22;100.00
40650;BME280;26342;42.826;23.992;2022-07-11T03:19:06;95407.88;;;13.17;100.00
40650;BME280;26342;42.826;23.992;2022-07-11T03:21:31;95409.47;;;13.18;100.00
40650;BME280;26342;42.826;23.992;2022-07-11T03:23:57;95408.19;;;13.21;100.00
40650;BME280;26342;42.826;23.992;2022-07-11T03:26:22;95410.03;;;13.25;100.00
40650;BME280;26342;42.826;23.992;2022-07-11T03:28:47;95414.88;;;13.23;100.00
40650;BME280;26342;42.826;23.992;2022-07-11T03:31:13;95411.09;;;13.24;100.00
40650;BME280;26342;42.826;23.992;2022-07-11T03:33:38;95416.44;;;13.19;100.00
40650;BME280;26342;42.826;23.992;2022-07-11T03:36:04;95422.88;;;13.18;100.00
40650;BME280;26342;42.826;23.992;2022-07-11T03:38:29;95418.06;;;13.15;100.00
40650;BME280;26342;42.826;23.992;2022-07-11T03:40:55;95411.66;;;13.21;100.00
40650;BME280;26342;42.826;23.992;2022-07-11T03:43:22;95416.19;;;13.26;100.00
40650;BME280;26342;42.826;23.992;2022-07-11T03:45:47;95420.47;;;13.27;100.00
40650;BME280;26342;42.826;23.992;2022-07-11T03:48:13;95422.09;;;13.23;100.00
40650;BME280;26342;42.826;23.992;2022-07-11T03:50:38;95424.22;;;13.31;100.00
40650;BME280;26342;42.826;23.992;2022-07-11T03:53:03;95426.63;;;13.37;100.00
40650;BME280;26342;42.826;23.992;2022-07-11T03:55:30;95425.53;;;13.33;100.00
40650;BME280;26342;42.826;23.992;2022-07-11T03:57:55;95436.31;;;13.23;100.00
40650;BME280;26342;42.826;23.992;2022-07-11T04:00:21;95427.19;;;13.29;100.00
40650;BME280;26342;42.826;23.992;2022-07-11T04:02:48;95427.47;;;13.28;100.00
40650;BME280;26342;42.826;23.992;2022-07-11T04:05:13;95424.50;;;13.29;100.00
40650;BME280;26342;42.826;23.992;2022-07-11T04:07:40;95428.47;;;13.42;100.00
40650;BME280;26342;42.826;23.992;2022-07-11T04:10:06;95423.09;;;13.42;100.00
40650;BME280;26342;42.826;23.992;2022-07-11T04:12:31;95422.88;;;13.38;100.00
40650;BME280;26342;42.826;23.992;2022-07-11T04:14:58;95422.34;;;13.36;100.00
40650;BME280;26342;42.826;23.992;2022-07-11T04:17:23;95424.75;;;13.18;100.00
40650;BME280;26342;42.826;23.992;2022-07-11T04:19:49;95422.91;;;13.23;100.00
40650;BME280;26342;42.826;23.992;2022-07-11T04:22:14;95422.09;;;13.28;100.00
40650;BME280;26342;42.826;23.992;2022-07-11T04:24:39;95430.09;;;13.43;100.00
40650;BME280;26342;42.826;23.992;2022-07-11T04:27:05;95428.69;;;13.51;100.00
40650;BME280;26342;42.826;23.992;2022-07-11T04:29:31;95428.13;;;13.64;100.00
40650;BME280;26342;42.826;23.992;2022-07-11T04:31:56;95424.88;;;13.72;100.00
40650;BME280;26342;42.826;23.992;2022-07-11T04:34:22;95426.41;;;13.88;100.00
40650;BME280;26342;42.826;23.992;2022-07-11T04:36:47;95421.25;;;14.02;100.00
40650;BME280;26342;42.826;23.992;2022-07-11T04:39:13;95423.66;;;14.04;100.00
40650;BME280;26342;42.826;23.992;2022-07-11T04:41:39;95430.31;;;14.11;100.00
40650;BME280;26342;42.826;23.992;2022-07-11T04:44:05;95425.13;;;14.30;100.00
40650;BME280;26342;42.826;23.992;2022-07-11T04:46:30;95424.25;;;14.40;100.00
40650;BME280;26342;42.826;23.992;2022-07-11T04:48:57;95437.53;;;14.60;100.00
40650;BME280;26342;42.826;23.992;2022-07-11T04:51:23;95434.44;;;14.77;98.88
40650;BME280;26342;42.826;23.992;2022-07-11T04:53:49;95439.06;;;14.71;97.42
40650;BME280;26342;42.826;23.992;2022-07-11T04:56:15;95432.31;;;14.79;96.50
40650;BME280;26342;42.826;23.992;2022-07-11T04:58:40;95440.03;;;14.86;95.58
40650;BME280;26342;42.826;23.992;2022-07-11T05:01:05;95430.78;;;14.97;97.48
40650;BME280;26342;42.826;23.992;2022-07-11T05:03:31;95440.34;;;15.08;94.36
40650;BME280;26342;42.826;23.992;2022-07-11T05:06:00;95439.69;;;15.21;94.14
40650;BME280;26342;42.826;23.992;2022-07-11T05:08:26;95436.09;;;15.31;94.22
40650;BME280;26342;42.826;23.992;2022-07-11T05:10:51;95438.13;;;15.44;93.27
40650;BME280;26342;42.826;23.992;2022-07-11T05:13:17;95433.97;;;15.57;91.44
40650;BME280;26342;42.826;23.992;2022-07-11T05:15:42;95432.56;;;15.65;93.21
40650;BME280;26342;42.826;23.992;2022-07-11T05:18:09;95435.69;;;15.72;91.10
40650;BME280;26342;42.826;23.992;2022-07-11T05:20:34;95426.97;;;15.80;90.46
40650;BME280;26342;42.826;23.992;2022-07-11T05:23:00;95431.16;;;15.91;90.64
40650;BME280;26342;42.826;23.992;2022-07-11T05:25:25;95425.56;;;16.06;91.58
40650;BME280;26342;42.826;23.992;2022-07-11T05:27:51;95422.97;;;16.20;89.71
40650;BME280;26342;42.826;23.992;2022-07-11T05:30:16;95427.41;;;16.30;87.90
40650;BME280;26342;42.826;23.992;2022-07-11T05:32:42;95417.28;;;16.40;88.17
40650;BME280;26342;42.826;23.992;2022-07-11T05:35:08;95417.66;;;16.53;86.77
40650;BME280;26342;42.826;23.992;2022-07-11T05:37:34;95418.22;;;16.68;86.47
40650;BME280;26342;42.826;23.992;2022-07-11T05:39:59;95412.81;;;16.87;89.56
40650;BME280;26342;42.826;23.992;2022-07-11T05:42:25;95406.44;;;16.97;82.64
40650;BME280;26342;42.826;23.992;2022-07-11T05:44:51;95406.53;;;17.06;84.70
40650;BME280;26342;42.826;23.992;2022-07-11T05:47:17;95400.81;;;17.26;85.59
40650;BME280;26342;42.826;23.992;2022-07-11T05:49:42;95409.19;;;17.52;85.87
40650;BME280;26342;42.826;23.992;2022-07-11T05:52:08;95404.81;;;17.70;83.86
40650;BME280;26342;42.826;23.992;2022-07-11T05:54:34;95400.34;;;17.79;81.33
40650;BME280;26342;42.826;23.992;2022-07-11T05:56:59;95406.91;;;18.00;81.72
40650;BME280;26342;42.826;23.992;2022-07-11T05:59:26;95409.47;;;18.19;82.76
40650;BME280;26342;42.826;23.992;2022-07-11T06:01:52;95405.44;;;18.30;85.13
40650;BME280;26342;42.826;23.992;2022-07-11T06:04:17;95400.88;;;18.53;83.99
40650;BME280;26342;42.826;23.992;2022-07-11T06:06:43;95410.72;;;18.72;83.53
40650;BME280;26342;42.826;23.992;2022-07-11T06:09:08;95403.34;;;18.86;83.10
40650;BME280;26342;42.826;23.992;2022-07-11T06:11:34;95402.19;;;19.01;82.36
40650;BME280;26342;42.826;23.992;2022-07-11T06:13:59;95401.47;;;19.17;77.95
40650;BME280;26342;42.826;23.992;2022-07-11T06:16:24;95409.19;;;19.33;75.97
40650;BME280;26342;42.826;23.992;2022-07-11T06:18:50;95414.19;;;19.48;73.69
40650;BME280;26342;42.826;23.992;2022-07-11T06:21:16;95412.22;;;19.62;66.90
40650;BME280;26342;42.826;23.992;2022-07-11T06:23:42;95410.19;;;19.68;64.18
40650;BME280;26342;42.826;23.992;2022-07-11T06:26:08;95405.13;;;19.84;63.17
40650;BME280;26342;42.826;23.992;2022-07-11T06:28:33;95406.75;;;20.02;66.08
40650;BME280;26342;42.826;23.992;2022-07-11T06:30:59;95409.94;;;20.04;62.23
40650;BME280;26342;42.826;23.992;2022-07-11T06:33:25;95404.41;;;20.09;63.73
40650;BME280;26342;42.826;23.992;2022-07-11T06:35:50;95401.69;;;20.26;64.29
40650;BME280;26342;42.826;23.992;2022-07-11T06:38:16;95409.69;;;20.40;61.41
40650;BME280;26342;42.826;23.992;2022-07-11T06:40:42;95408.09;;;20.30;58.26
40650;BME280;26342;42.826;23.992;2022-07-11T06:43:11;95408.72;;;20.19;59.83
40650;BME280;26342;42.826;23.992;2022-07-11T06:45:37;95402.81;;;20.25;58.31
40650;BME280;26342;42.826;23.992;2022-07-11T06:48:03;95412.41;;;20.31;59.77
40650;BME280;26342;42.826;23.992;2022-07-11T06:50:29;95395.97;;;20.36;59.32
40650;BME280;26342;42.826;23.992;2022-07-11T06:52:54;95392.00;;;20.34;61.39
40650;BME280;26342;42.826;23.992;2022-07-11T06:55:19;95386.28;;;20.53;61.08
40650;BME280;26342;42.826;23.992;2022-07-11T06:57:45;95387.88;;;20.54;60.58
40650;BME280;26342;42.826;23.992;2022-07-11T07:00:11;95384.19;;;20.76;60.08
40650;BME280;26342;42.826;23.992;2022-07-11T07:02:37;95386.88;;;20.84;59.49
40650;BME280;26342;42.826;23.992;2022-07-11T07:05:04;95380.03;;;20.96;60.72
40650;BME280;26342;42.826;23.992;2022-07-11T07:07:29;95382.81;;;21.16;56.46
40650;BME280;26342;42.826;23.992;2022-07-11T07:09:55;95378.81;;;21.23;55.40
40650;BME280;26342;42.826;23.992;2022-07-11T07:12:21;95383.13;;;21.24;57.53
40650;BME280;26342;42.826;23.992;2022-07-11T07:14:47;95376.78;;;21.19;58.31
40650;BME280;26342;42.826;23.992;2022-07-11T07:17:13;95381.59;;;21.05;57.70
40650;BME280;26342;42.826;23.992;2022-07-11T07:19:38;95382.38;;;21.06;57.02
40650;BME280;26342;42.826;23.992;2022-07-11T07:22:03;95385.28;;;20.92;59.45
40650;BME280;26342;42.826;23.992;2022-07-11T07:24:34;95377.78;;;20.98;59.32
40650;BME280;26342;42.826;23.992;2022-07-11T07:27:02;95387.28;;;21.21;60.18
40650;BME280;26342;42.826;23.992;2022-07-11T07:29:27;95393.66;;;21.42;56.20
40650;BME280;26342;42.826;23.992;2022-07-11T07:31:53;95386.91;;;21.49;58.06
40650;BME280;26342;42.826;23.992;2022-07-11T07:34:19;95383.25;;;21.44;60.04
40650;BME280;26342;42.826;23.992;2022-07-11T07:36:45;95393.06;;;21.28;57.78
40650;BME280;26342;42.826;23.992;2022-07-11T07:39:11;95392.44;;;21.05;57.97
40650;BME280;26342;42.826;23.992;2022-07-11T07:41:36;95389.25;;;21.12;57.69
40650;BME280;26342;42.826;23.992;2022-07-11T07:44:02;95387.78;;;21.14;60.75
40650;BME280;26342;42.826;23.992;2022-07-11T07:46:28;95384.41;;;21.35;57.79
40650;BME280;26342;42.826;23.992;2022-07-11T07:48:53;95395.94;;;21.14;59.93
40650;BME280;26342;42.826;23.992;2022-07-11T07:51:19;95402.97;;;20.98;57.57
40650;BME280;26342;42.826;23.992;2022-07-11T07:53:44;95404.47;;;20.70;58.90
40650;BME280;26342;42.826;23.992;2022-07-11T07:56:10;95391.88;;;20.48;59.20
40650;BME280;26342;42.826;23.992;2022-07-11T07:58:35;95403.34;;;20.45;58.97
40650;BME280;26342;42.826;23.992;2022-07-11T08:01:01;95406.97;;;20.40;58.21
40650;BME280;26342;42.826;23.992;2022-07-11T08:03:44;95415.72;;;20.20;56.92
40650;BME280;26342;42.826;23.992;2022-07-11T08:06:10;95413.63;;;19.99;58.74
40650;BME280;26342;42.826;23.992;2022-07-11T08:08:35;95411.97;;;19.81;58.91
40650;BME280;26342;42.826;23.992;2022-07-11T08:11:01;95411.97;;;19.81;58.71
40650;BME280;26342;42.826;23.992;2022-07-11T08:13:27;95420.59;;;19.83;56.63
40650;BME280;26342;42.826;23.992;2022-07-11T08:15:53;95413.56;;;19.82;58.02
40650;BME280;26342;42.826;23.992;2022-07-11T08:18:18;95411.97;;;19.90;59.16
40650;BME280;26342;42.826;23.992;2022-07-11T08:20:44;95418.84;;;19.96;58.89
40650;BME280;26342;42.826;23.992;2022-07-11T08:23:09;95417.63;;;20.11;56.38
40650;BME280;26342;42.826;23.992;2022-07-11T08:25:34;95422.88;;;20.07;57.15
40650;BME280;26342;42.826;23.992;2022-07-11T08:28:00;95428.13;;;20.12;57.62
40650;BME280;26342;42.826;23.992;2022-07-11T08:30:25;95427.66;;;20.10;55.05
40650;BME280;26342;42.826;23.992;2022-07-11T08:32:51;95429.53;;;19.92;54.13
40650;BME280;26342;42.826;23.992;2022-07-11T08:35:17;95435.06;;;19.87;57.57
40650;BME280;26342;42.826;23.992;2022-07-11T08:37:43;95434.13;;;19.83;57.69
40650;BME280;26342;42.826;23.992;2022-07-11T08:40:08;95429.78;;;19.82;54.95
40650;BME280;26342;42.826;23.992;2022-07-11T08:42:40;95436.06;;;19.91;53.94
40650;BME280;26342;42.826;23.992;2022-07-11T08:45:09;95425.59;;;20.16;54.63
40650;BME280;26342;42.826;23.992;2022-07-11T08:47:35;95426.16;;;20.70;54.38
40650;BME280;26342;42.826;23.992;2022-07-11T08:50:01;95417.31;;;21.07;51.13
40650;BME280;26342;42.826;23.992;2022-07-11T08:52:28;95421.03;;;21.03;50.15
40650;BME280;26342;42.826;23.992;2022-07-11T08:54:53;95427.22;;;21.21;48.85
40650;BME280;26342;42.826;23.992;2022-07-11T08:57:19;95423.41;;;21.04;45.42
40650;BME280;26342;42.826;23.992;2022-07-11T08:59:47;95423.91;;;20.89;49.64
40650;BME280;26342;42.826;23.992;2022-07-11T09:02:13;95421.06;;;20.85;47.09
40650;BME280;26342;42.826;23.992;2022-07-11T09:04:39;95429.47;;;20.92;47.93
40650;BME280;26342;42.826;23.992;2022-07-11T09:07:05;95424.94;;;21.40;49.51
40650;BME280;26342;42.826;23.992;2022-07-11T09:09:31;95422.88;;;21.84;47.65
40650;BME280;26342;42.826;23.992;2022-07-11T09:11:58;95417.59;;;21.79;44.83
40650;BME280;26342;42.826;23.992;2022-07-11T09:14:29;95421.06;;;21.96;46.83
40650;BME280;26342;42.826;23.992;2022-07-11T09:17:00;95417.81;;;22.33;45.19
40650;BME280;26342;42.826;23.992;2022-07-11T09:19:27;95418.16;;;22.73;48.54
40650;BME280;26342;42.826;23.992;2022-07-11T09:27:43;95418.69;;;22.66;44.61
40650;BME280;26342;42.826;23.992;2022-07-11T09:30:19;95430.50;;;22.49;48.00
40650;BME280;26342;42.826;23.992;2022-07-11T09:35:20;95414.88;;;22.67;44.12
40650;BME280;26342;42.826;23.992;2022-07-11T09:37:46;95421.81;;;22.98;43.07
40650;BME280;26342;42.826;23.992;2022-07-11T09:40:14;95419.97;;;23.23;44.93
40650;BME280;26342;42.826;23.992;2022-07-11T09:43:06;95418.22;;;23.39;45.50
40650;BME280;26342;42.826;23.992;2022-07-11T09:45:33;95429.66;;;23.45;41.27
40650;BME280;26342;42.826;23.992;2022-07-11T09:48:00;95423.66;;;23.51;43.89
40650;BME280;26342;42.826;23.992;2022-07-11T09:50:28;95429.75;;;23.36;44.01
40650;BME280;26342;42.826;23.992;2022-07-11T09:53:07;95429.66;;;23.45;46.01
40650;BME280;26342;42.826;23.992;2022-07-11T09:55:35;95426.13;;;23.32;41.99
40650;BME280;26342;42.826;23.992;2022-07-11T09:58:08;95423.16;;;23.25;43.26
40650;BME280;26342;42.826;23.992;2022-07-11T10:00:35;95424.38;;;23.60;40.86
40650;BME280;26342;42.826;23.992;2022-07-11T10:03:02;95433.25;;;23.70;42.79
40650;BME280;26342;42.826;23.992;2022-07-11T10:05:28;95435.44;;;24.01;41.83
40650;BME280;26342;42.826;23.992;2022-07-11T10:07:55;95429.88;;;24.21;43.16
40650;BME280;26342;42.826;23.992;2022-07-11T10:10:24;95430.44;;;24.15;41.95
40650;BME280;26342;42.826;23.992;2022-07-11T10:12:51;95431.53;;;24.63;43.73
40650;BME280;26342;42.826;23.992;2022-07-11T10:15:36;95430.44;;;24.27;39.78
40650;BME280;26342;42.826;23.992;2022-07-11T10:20:34;95439.25;;;23.30;39.16
40650;BME280;26342;42.826;23.992;2022-07-11T10:23:24;95438.97;;;23.10;40.80
40650;BME280;26342;42.826;23.992;2022-07-11T10:26:07;95444.25;;;22.95;41.30
40650;BME280;26342;42.826;23.992;2022-07-11T10:28:51;95442.03;;;23.09;41.58
40650;BME280;26342;42.826;23.992;2022-07-11T10:31:19;95443.00;;;23.25;40.85
40650;BME280;26342;42.826;23.992;2022-07-11T10:36:29;95439.25;;;22.97;39.82
40650;BME280;26342;42.826;23.992;2022-07-11T10:41:55;95445.38;;;23.27;44.39
40650;BME280;26342;42.826;23.992;2022-07-11T10:44:21;95444.44;;;23.56;41.27
40650;BME280;26342;42.826;23.992;2022-07-11T10:46:47;95449.75;;;23.52;42.53
40650;BME280;26342;42.826;23.992;2022-07-11T10:59:55;95442.97;;;23.46;40.58
40650;BME280;26342;42.826;23.992;2022-07-11T11:02:21;95441.25;;;23.54;40.87
40650;BME280;26342;42.826;23.992;2022-07-11T11:05:00;95443.59;;;23.31;39.00
40650;BME280;26342;42.826;23.992;2022-07-11T11:07:42;95443.25;;;22.99;41.41
40650;BME280;26342;42.826;23.992;2022-07-11T11:15:50;95449.75;;;23.40;38.74
40650;BME280;26342;42.826;23.992;2022-07-11T11:18:41;95440.75;;;23.73;43.13
40650;BME280;26342;42.826;23.992;2022-07-11T11:23:39;95454.19;;;24.02;43.32
40650;BME280;26342;42.826;23.992;2022-07-11T11:28:30;95435.44;;;24.13;39.74
40650;BME280;26342;42.826;23.992;2022-07-11T11:30:58;95443.38;;;24.30;41.79
40650;BME280;26342;42.826;23.992;2022-07-11T11:33:32;95436.69;;;24.40;39.63
40650;BME280;26342;42.826;23.992;2022-07-11T11:36:08;95447.38;;;24.33;36.63
40650;BME280;26342;42.826;23.992;2022-07-11T11:38:41;95447.34;;;23.84;38.48
40650;BME280;26342;42.826;23.992;2022-07-11T11:41:07;95437.38;;;23.43;38.91
40650;BME280;26342;42.826;23.992;2022-07-11T11:43:36;95441.16;;;23.17;40.71
40650;BME280;26342;42.826;23.992;2022-07-11T11:46:04;95441.97;;;22.97;41.54
40650;BME280;26342;42.826;23.992;2022-07-11T11:48:31;95443.66;;;22.89;39.84
40650;BME280;26342;42.826;23.992;2022-07-11T11:51:16;95440.38;;;22.75;40.67
40650;BME280;26342;42.826;23.992;2022-07-11T11:53:50;95449.41;;;22.67;42.51
40650;BME280;26342;42.826;23.992;2022-07-11T11:58:50;95445.16;;;22.78;40.77
40650;BME280;26342;42.826;23.992;2022-07-11T12:01:21;95439.06;;;23.02;41.67
40650;BME280;26342;42.826;23.992;2022-07-11T12:03:51;95445.53;;;23.30;43.47
40650;BME280;26342;42.826;23.992;2022-07-11T12:06:22;95448.97;;;23.39;42.76
40650;BME280;26342;42.826;23.992;2022-07-11T12:08:48;95446.84;;;23.57;45.00
40650;BME280;26342;42.826;23.992;2022-07-11T12:11:15;95448.81;;;23.81;40.49
40650;BME280;26342;42.826;23.992;2022-07-11T12:13:41;95450.75;;;23.93;38.76
40650;BME280;26342;42.826;23.992;2022-07-11T12:16:17;95431.69;;;23.81;41.09
40650;BME280;26342;42.826;23.992;2022-07-11T12:19:02;95446.78;;;23.90;40.28
40650;BME280;26342;42.826;23.992;2022-07-11T12:21:29;95447.22;;;23.68;40.71
40650;BME280;26342;42.826;23.992;2022-07-11T12:23:59;95443.53;;;23.52;37.48
40650;BME280;26342;42.826;23.992;2022-07-11T12:26:27;95438.22;;;23.55;39.70
40650;BME280;26342;42.826;23.992;2022-07-11T12:29:14;95433.84;;;23.63;38.55
40650;BME280;26342;42.826;23.992;2022-07-11T12:31:48;95443.97;;;23.54;37.89
40650;BME280;26342;42.826;23.992;2022-07-11T12:34:15;95433.75;;;23.05;36.99
40650;BME280;26342;42.826;23.992;2022-07-11T12:36:41;95438.19;;;23.10;40.55
40650;BME280;26342;42.826;23.992;2022-07-11T12:39:07;95433.50;;;23.31;40.61
40650;BME280;26342;42.826;23.992;2022-07-11T12:41:34;95438.78;;;23.16;39.35
40650;BME280;26342;42.826;23.992;2022-07-11T12:44:00;95430.72;;;23.19;41.29
40650;BME280;26342;42.826;23.992;2022-07-11T12:46:45;95441.88;;;23.26;40.18
40650;BME280;26342;42.826;23.992;2022-07-11T12:49:14;95439.91;;;23.48;42.92
40650;BME280;26342;42.826;23.992;2022-07-11T12:51:42;95433.25;;;23.70;40.79
40650;BME280;26342;42.826;23.992;2022-07-11T12:54:15;95437.81;;;23.90;42.89
40650;BME280;26342;42.826;23.992;2022-07-11T12:56:51;95442.72;;;23.97;39.30
40650;BME280;26342;42.826;23.992;2022-07-11T12:59:20;95435.53;;;23.92;39.44
40650;BME280;26342;42.826;23.992;2022-07-11T13:01:59;95440.53;;;23.65;37.37
40650;BME280;26342;42.826;23.992;2022-07-11T13:04:39;95434.38;;;23.68;39.44
40650;BME280;26342;42.826;23.992;2022-07-11T13:10:08;95439.00;;;23.56;37.84
40650;BME280;26342;42.826;23.992;2022-07-11T13:12:34;95436.72;;;23.58;39.23
40650;BME280;26342;42.826;23.992;2022-07-11T13:15:01;95434.63;;;23.63;37.81
40650;BME280;26342;42.826;23.992;2022-07-11T13:17:38;95438.06;;;23.39;39.59
40650;BME280;26342;42.826;23.992;2022-07-11T13:20:06;95436.63;;;23.54;39.63
40650;BME280;26342;42.826;23.992;2022-07-11T13:22:33;95434.28;;;23.65;38.80
40650;BME280;26342;42.826;23.992;2022-07-11T13:24:58;95441.84;;;23.59;38.64
40650;BME280;26342;42.826;23.992;2022-07-11T13:27:23;95438.88;;;23.52;36.99
40650;BME280;26342;42.826;23.992;2022-07-11T13:29:49;95439.19;;;23.38;37.94